createdAt,value
2022-10-15T00:01:38.937Z,100.00
2022-10-15T00:04:05.570Z,100.00
2022-10-15T00:06:32.500Z,100.00
2022-10-15T00:08:59.170Z,100.00
2022-10-15T00:11:28.577Z,100.00
2022-10-15T00:13:56.339Z,100.00
2022-10-15T00:16:25.990Z,100.00
2022-10-15T00:18:55.522Z,100.00
2022-10-15T00:21:22.144Z,100.00
2022-10-15T00:23:49.460Z,100.00
2022-10-15T00:26:18.814Z,100.00
2022-10-15T00:28:46.283Z,100.00
2022-10-15T00:31:16.038Z,100.00
2022-10-15T00:33:43.958Z,100.00
2022-10-15T00:36:16.273Z,100.00
2022-10-15T00:38:43.520Z,100.00
2022-10-15T00:41:16.002Z,100.00
2022-10-15T00:43:54.729Z,100.00
2022-10-15T00:46:27.345Z,100.00
2022-10-15T00:51:35.545Z,100.00
2022-10-15T00:54:02.451Z,100.00
2022-10-15T00:56:32.748Z,100.00
2022-10-15T00:59:00.361Z,100.00
2022-10-15T01:01:27.199Z,100.00
2022-10-15T01:03:55.738Z,100.00
2022-10-15T01:06:23.454Z,100.00
2022-10-15T01:08:50.692Z,100.00
2022-10-15T01:11:39.666Z,100.00
2022-10-15T01:14:33.930Z,100.00
2022-10-15T01:17:25.940Z,100.00
2022-10-15T01:20:26.146Z,100.00
2022-10-15T01:23:26.705Z,100.00
2022-10-15T01:26:22.210Z,100.00
2022-10-15T01:29:16.125Z,100.00
2022-10-15T01:31:45.106Z,100.00
2022-10-15T01:34:24.346Z,100.00
2022-10-15T01:37:18.040Z,100.00
2022-10-15T01:39:56.182Z,100.00
2022-10-15T01:42:25.642Z,100.00
2022-10-15T01:44:54.521Z,100.00
2022-10-15T01:47:27.952Z,100.00
2022-10-15T01:49:55.735Z,100.00
2022-10-15T01:52:27.554Z,100.00
2022-10-15T01:54:55.318Z,100.00
2022-10-15T01:57:25.961Z,100.00
2022-10-15T01:59:54.274Z,100.00
2022-10-15T02:02:21.137Z,100.00
2022-10-15T02:04:47.924Z,100.00
2022-10-15T02:07:49.889Z,100.00
2022-10-15T02:10:48.359Z,100.00
2022-10-15T02:13:45.741Z,100.00
2022-10-15T02:16:27.463Z,100.00
2022-10-15T02:19:18.774Z,100.00
2022-10-15T02:21:52.651Z,100.00
2022-10-15T02:24:25.671Z,100.00
2022-10-15T02:26:56.026Z,100.00
2022-10-15T02:29:25.570Z,100.00
2022-10-15T02:31:53.674Z,100.00
2022-10-15T02:34:22.799Z,100.00
2022-10-15T02:36:50.129Z,100.00
2022-10-15T02:39:22.365Z,100.00
2022-10-15T02:41:49.251Z,100.00
2022-10-15T02:44:15.910Z,100.00
2022-10-15T02:46:42.882Z,100.00
2022-10-15T02:49:09.494Z,100.00
2022-10-15T02:51:36.362Z,100.00
2022-10-15T02:54:04.814Z,100.00
2022-10-15T02:56:31.672Z,100.00
2022-10-15T02:58:58.409Z,100.00
2022-10-15T03:01:25.049Z,100.00
2022-10-15T03:03:51.755Z,100.00
2022-10-15T03:06:18.358Z,100.00
2022-10-15T03:08:44.976Z,100.00
2022-10-15T03:11:11.936Z,100.00
2022-10-15T03:13:39.485Z,100.00
2022-10-15T03:16:07.320Z,100.00
2022-10-15T03:18:36.828Z,100.00
2022-10-15T03:21:06.532Z,100.00
2022-10-15T03:26:04.858Z,100.00
2022-10-15T03:28:31.556Z,100.00
2022-10-15T03:30:58.238Z,100.00
2022-10-15T03:33:25.297Z,100.00
2022-10-15T03:35:53.304Z,100.00
2022-10-15T03:38:19.890Z,100.00
2022-10-15T03:40:46.944Z,100.00
2022-10-15T03:43:13.661Z,100.00
2022-10-15T03:45:40.640Z,100.00
2022-10-15T03:48:07.417Z,100.00
2022-10-15T03:50:34.810Z,100.00
2022-10-15T03:53:06.066Z,100.00
2022-10-15T03:55:33.445Z,100.00
2022-10-15T03:58:00.172Z,100.00
2022-10-15T04:00:29.032Z,100.00
2022-10-15T04:02:56.097Z,100.00
2022-10-15T04:05:22.676Z,100.00
2022-10-15T04:07:49.305Z,100.00
2022-10-15T04:10:15.861Z,100.00
2022-10-15T04:12:42.598Z,100.00
2022-10-15T04:15:09.618Z,100.00
2022-10-15T04:17:36.245Z,100.00
2022-10-15T04:20:02.932Z,100.00
2022-10-15T04:22:29.526Z,100.00
2022-10-15T04:24:56.103Z,100.00
2022-10-15T04:27:22.703Z,100.00
2022-10-15T04:29:49.287Z,100.00
2022-10-15T04:32:16.850Z,100.00
2022-10-15T04:34:43.742Z,100.00
2022-10-15T04:37:10.353Z,100.00
2022-10-15T04:39:36.929Z,100.00
2022-10-15T04:42:03.797Z,100.00
2022-10-15T04:44:30.393Z,100.00
2022-10-15T04:46:57.237Z,100.00
2022-10-15T04:49:24.024Z,100.00
2022-10-15T04:51:50.635Z,100.00
2022-10-15T04:54:17.582Z,100.00
2022-10-15T04:56:44.311Z,100.00
2022-10-15T04:59:11.093Z,100.00
2022-10-15T05:01:37.769Z,100.00
2022-10-15T05:04:04.529Z,100.00
2022-10-15T05:06:33.242Z,100.00
2022-10-15T05:08:59.905Z,100.00
2022-10-15T05:11:27.367Z,100.00
2022-10-15T05:13:57.968Z,100.00
2022-10-15T05:16:27.156Z,100.00
2022-10-15T05:18:58.436Z,100.00
2022-10-15T05:21:25.697Z,100.00
2022-10-15T05:23:52.380Z,100.00
2022-10-15T05:26:22.236Z,100.00
2022-10-15T05:28:49.794Z,100.00
2022-10-15T05:31:21.637Z,100.00
2022-10-15T05:33:49.747Z,100.00
2022-10-15T05:36:19.205Z,100.00
2022-10-15T05:38:46.299Z,100.00
2022-10-15T05:41:13.094Z,100.00
2022-10-15T05:43:41.363Z,100.00
2022-10-15T05:46:08.797Z,100.00
2022-10-15T05:48:35.411Z,100.00
2022-10-15T05:51:03.872Z,100.00
2022-10-15T05:53:30.658Z,100.00
2022-10-15T05:56:01.109Z,100.00
2022-10-15T05:58:33.292Z,100.00
2022-10-15T06:01:04.217Z,100.00
2022-10-15T06:03:31.548Z,100.00
2022-10-15T06:05:58.166Z,100.00
2022-10-15T06:10:56.740Z,100.00
2022-10-15T06:13:23.601Z,100.00
2022-10-15T06:15:50.273Z,100.00
2022-10-15T06:18:16.877Z,100.00
2022-10-15T06:20:44.018Z,100.00
2022-10-15T06:23:11.957Z,100.00
2022-10-15T06:25:39.387Z,100.00
2022-10-15T06:28:06.916Z,100.00
2022-10-15T06:30:33.796Z,100.00
2022-10-15T06:33:00.593Z,100.00
2022-10-15T06:35:30.447Z,100.00
2022-10-15T06:38:03.086Z,100.00
2022-10-15T06:40:30.861Z,100.00
2022-10-15T06:43:11.425Z,100.00
2022-10-15T06:45:40.263Z,100.00
2022-10-15T06:48:07.721Z,100.00
2022-10-15T06:50:35.970Z,100.00
2022-10-15T06:53:02.621Z,100.00
2022-10-15T06:55:29.214Z,100.00
2022-10-15T06:57:57.062Z,100.00
2022-10-15T07:00:24.907Z,100.00
2022-10-15T07:02:51.850Z,100.00
2022-10-15T07:05:19.632Z,100.00
2022-10-15T07:07:56.686Z,100.00
2022-10-15T07:10:24.757Z,100.00
2022-10-15T07:12:51.349Z,100.00
2022-10-15T07:15:19.243Z,100.00
2022-10-15T07:17:50.145Z,100.00
2022-10-15T07:20:21.602Z,100.00
2022-10-15T07:22:51.056Z,100.00
2022-10-15T07:25:17.906Z,100.00
2022-10-15T07:27:44.843Z,100.00
2022-10-15T07:30:11.705Z,100.00
2022-10-15T07:32:38.475Z,100.00
2022-10-15T07:35:05.379Z,100.00
2022-10-15T07:37:32.038Z,100.00
2022-10-15T07:39:58.633Z,100.00
2022-10-15T07:42:25.590Z,100.00
2022-10-15T07:44:52.152Z,100.00
2022-10-15T07:47:18.931Z,100.00
2022-10-15T07:49:45.605Z,100.00
2022-10-15T07:52:12.422Z,100.00
2022-10-15T07:54:39.002Z,100.00
2022-10-15T07:57:07.191Z,100.00
2022-10-15T07:59:34.733Z,100.00
2022-10-15T08:02:01.553Z,100.00
2022-10-15T08:04:28.446Z,100.00
2022-10-15T08:06:55.688Z,100.00
2022-10-15T08:09:22.636Z,100.00
2022-10-15T08:11:49.198Z,100.00
2022-10-15T08:14:15.942Z,100.00
2022-10-15T08:16:42.540Z,100.00
2022-10-15T08:19:09.076Z,100.00
2022-10-15T08:21:35.659Z,100.00
2022-10-15T08:24:02.258Z,100.00
2022-10-15T08:26:28.900Z,100.00
2022-10-15T08:28:55.603Z,100.00
2022-10-15T08:31:22.281Z,100.00
2022-10-15T08:33:48.835Z,100.00
2022-10-15T08:36:15.445Z,100.00
2022-10-15T08:38:41.976Z,100.00
2022-10-15T08:41:49.130Z,100.00
2022-10-15T08:44:32.256Z,100.00
2022-10-15T08:47:01.930Z,100.00
2022-10-15T08:49:55.712Z,100.00
2022-10-15T08:52:29.290Z,100.00
2022-10-15T08:54:58.573Z,100.00
2022-10-15T08:57:47.166Z,100.00
2022-10-15T09:00:13.650Z,100.00
2022-10-15T09:02:52.761Z,100.00
2022-10-15T09:05:51.688Z,100.00
2022-10-15T09:08:55.656Z,100.00
2022-10-15T09:11:53.129Z,100.00
2022-10-15T09:14:25.053Z,100.00
2022-10-15T09:16:51.776Z,100.00
2022-10-15T09:19:21.055Z,100.00
2022-10-15T09:21:52.527Z,100.00
2022-10-15T09:24:24.589Z,100.00
2022-10-15T09:27:13.026Z,100.00
2022-10-15T09:30:05.982Z,100.00
2022-10-15T09:32:49.455Z,100.00
2022-10-15T09:35:26.468Z,100.00
2022-10-15T09:37:56.566Z,100.00
2022-10-15T09:40:44.552Z,100.00
2022-10-15T09:43:13.115Z,100.00
2022-10-15T09:45:39.648Z,100.00
2022-10-15T09:48:17.718Z,100.00
2022-10-15T09:50:50.747Z,100.00
2022-10-15T09:53:28.140Z,100.00
2022-10-15T09:56:14.664Z,100.00
2022-10-15T09:58:58.581Z,100.00
2022-10-15T10:01:30.530Z,100.00
2022-10-15T10:04:20.403Z,100.00
2022-10-15T10:06:52.458Z,99.38
2022-10-15T10:09:27.269Z,99.20
2022-10-15T10:11:56.739Z,99.38
2022-10-15T10:14:31.236Z,99.54
2022-10-15T10:17:21.347Z,100.00
2022-10-15T10:20:17.720Z,99.28
2022-10-15T10:22:51.248Z,99.71
2022-10-15T10:25:27.790Z,99.53
2022-10-15T10:28:05.050Z,99.80
2022-10-15T10:30:42.764Z,99.68
2022-10-15T10:33:15.198Z,100.00
2022-10-15T10:35:50.211Z,98.22
2022-10-15T10:38:43.440Z,97.15
2022-10-15T10:41:11.835Z,97.35
2022-10-15T10:43:40.308Z,97.14
2022-10-15T10:46:15.792Z,95.79
2022-10-15T10:48:46.377Z,95.13
2022-10-15T10:51:22.316Z,94.71
2022-10-15T10:54:04.554Z,94.35
2022-10-15T10:56:35.384Z,92.47
2022-10-15T10:59:17.979Z,92.97
2022-10-15T11:01:44.617Z,92.74
2022-10-15T11:04:26.309Z,92.21
2022-10-15T11:07:01.849Z,92.00
2022-10-15T11:09:35.927Z,90.41
2022-10-15T11:12:08.266Z,90.56
2022-10-15T11:14:56.586Z,89.59
2022-10-15T11:17:54.108Z,87.34
2022-10-15T11:20:32.152Z,89.58
2022-10-15T11:23:45.772Z,87.07
2022-10-15T11:26:21.336Z,86.44
2022-10-15T11:29:11.433Z,85.69
2022-10-15T11:32:02.744Z,88.44
2022-10-15T11:35:01.555Z,85.85
2022-10-15T11:37:37.099Z,86.05
2022-10-15T11:40:41.295Z,86.08
2022-10-15T11:43:16.842Z,85.24
2022-10-15T11:46:08.051Z,82.71
2022-10-15T11:48:46.904Z,81.68
2022-10-15T11:51:27.635Z,80.95
2022-10-15T11:54:16.921Z,77.41
2022-10-15T11:56:45.820Z,80.33
2022-10-15T11:59:42.274Z,78.24
2022-10-15T12:02:37.873Z,78.03
2022-10-15T12:05:09.209Z,78.95
2022-10-15T12:07:44.944Z,77.33
2022-10-15T12:10:47.021Z,76.93
2022-10-15T12:13:25.642Z,78.34
2022-10-15T12:16:04.341Z,77.46
2022-10-15T12:18:38.392Z,77.77
2022-10-15T12:21:38.494Z,78.07
2022-10-15T12:24:15.684Z,76.88
2022-10-15T12:26:42.377Z,78.75
2022-10-15T12:29:22.052Z,78.46
2022-10-15T12:31:58.020Z,78.35
2022-10-15T12:34:42.114Z,78.18
2022-10-15T12:37:19.417Z,77.95
2022-10-15T12:39:52.659Z,78.41
2022-10-15T12:42:35.761Z,76.37
2022-10-15T12:45:06.345Z,78.44
2022-10-15T12:47:54.246Z,78.77
2022-10-15T12:50:30.176Z,78.85
2022-10-15T12:53:02.424Z,80.08
2022-10-15T12:55:39.578Z,78.83
2022-10-15T12:58:32.891Z,80.08
2022-10-15T13:01:13.721Z,80.44
2022-10-15T13:03:52.200Z,80.01
2022-10-15T13:06:22.031Z,80.51
2022-10-15T13:08:57.649Z,81.41
2022-10-15T13:11:35.911Z,81.83
2022-10-15T13:14:26.566Z,81.91
2022-10-15T13:16:53.749Z,82.47
2022-10-15T13:19:30.169Z,81.73
2022-10-15T13:21:59.732Z,82.93
2022-10-15T13:24:28.564Z,82.97
2022-10-15T13:26:57.145Z,83.17
2022-10-15T13:29:27.621Z,82.64
2022-10-15T13:31:57.244Z,82.26
2022-10-15T13:34:34.776Z,82.06
2022-10-15T13:37:04.080Z,82.77
2022-10-15T13:39:37.590Z,82.70
2022-10-15T13:42:13.220Z,83.57
2022-10-15T13:44:40.286Z,83.14
2022-10-15T13:47:31.381Z,83.58
2022-10-15T13:50:20.267Z,83.56
2022-10-15T13:53:19.453Z,83.03
2022-10-15T13:55:47.279Z,83.93
2022-10-15T13:58:27.425Z,83.91
2022-10-15T14:01:14.861Z,84.45
2022-10-15T14:03:47.291Z,84.77
2022-10-15T14:06:29.273Z,84.16
2022-10-15T14:09:16.008Z,84.60
2022-10-15T14:11:42.840Z,85.01
2022-10-15T14:14:39.878Z,84.94
2022-10-15T14:17:10.198Z,84.82
2022-10-15T14:19:39.053Z,84.77
2022-10-15T14:22:06.348Z,85.15
2022-10-15T14:24:35.849Z,85.03
2022-10-15T14:27:08.275Z,85.21
2022-10-15T14:29:43.165Z,85.54
2022-10-15T14:32:29.165Z,85.45
2022-10-15T14:35:00.202Z,85.46
2022-10-15T14:37:35.958Z,85.15
2022-10-15T14:40:09.551Z,84.58
2022-10-15T14:43:04.470Z,84.76
2022-10-15T14:45:42.248Z,84.98
2022-10-15T14:48:27.533Z,84.65
2022-10-15T14:50:59.572Z,84.68
2022-10-15T14:53:29.144Z,84.87
2022-10-15T14:56:07.931Z,84.65
2022-10-15T14:58:34.990Z,84.49
2022-10-15T15:01:05.051Z,84.81
2022-10-15T15:03:39.958Z,85.06
2022-10-15T15:06:07.558Z,85.03
2022-10-15T15:08:34.174Z,85.08
2022-10-15T15:11:04.628Z,85.10
2022-10-15T15:13:38.589Z,84.79
2022-10-15T15:16:05.554Z,84.98
2022-10-15T15:18:32.489Z,84.46
2022-10-15T15:21:03.108Z,84.51
2022-10-15T15:23:30.297Z,84.11
2022-10-15T15:25:56.857Z,84.40
2022-10-15T15:28:25.637Z,84.24
2022-10-15T15:31:02.526Z,84.39
2022-10-15T15:33:29.265Z,84.36
2022-10-15T15:36:01.733Z,84.23
2022-10-15T15:38:31.188Z,83.65
2022-10-15T15:41:17.670Z,83.75
2022-10-15T15:43:45.715Z,84.36
2022-10-15T15:46:13.168Z,83.98
2022-10-15T15:48:40.121Z,84.15
2022-10-15T15:51:10.527Z,83.92
2022-10-15T15:53:37.070Z,83.91
2022-10-15T15:56:03.677Z,84.19
2022-10-15T15:58:30.254Z,84.06
2022-10-15T16:00:56.900Z,84.93
2022-10-15T16:03:23.474Z,85.12
2022-10-15T16:08:22.707Z,84.88
2022-10-15T16:10:49.329Z,84.89
2022-10-15T16:13:15.976Z,85.87
2022-10-15T16:15:42.581Z,85.60
2022-10-15T16:18:09.472Z,85.81
2022-10-15T16:20:39.539Z,86.00
2022-10-15T16:23:06.442Z,86.89
2022-10-15T16:25:33.099Z,87.17
2022-10-15T16:28:01.850Z,87.43
2022-10-15T16:30:29.162Z,87.63
2022-10-15T16:32:55.964Z,87.91
2022-10-15T16:35:22.924Z,88.26
2022-10-15T16:37:52.252Z,88.18
2022-10-15T16:40:19.134Z,89.00
2022-10-15T16:42:45.756Z,89.18
2022-10-15T16:45:13.368Z,89.04
2022-10-15T16:47:39.963Z,89.67
2022-10-15T16:50:07.334Z,89.80
2022-10-15T16:52:34.576Z,90.29
2022-10-15T16:55:01.118Z,90.67
2022-10-15T16:57:27.700Z,91.55
2022-10-15T16:59:54.346Z,91.66
2022-10-15T17:02:20.966Z,91.38
2022-10-15T17:04:47.541Z,92.29
2022-10-15T17:07:14.250Z,92.29
2022-10-15T17:09:41.312Z,92.87
2022-10-15T17:12:07.945Z,93.21
2022-10-15T17:14:34.587Z,93.20
2022-10-15T17:17:01.098Z,93.04
2022-10-15T17:19:30.573Z,93.70
2022-10-15T17:22:00.647Z,93.77
2022-10-15T17:24:27.322Z,93.66
2022-10-15T17:26:54.934Z,93.93
2022-10-15T17:29:23.075Z,94.33
2022-10-15T17:31:50.854Z,94.47
2022-10-15T17:34:18.150Z,94.00
2022-10-15T17:36:47.349Z,93.68
2022-10-15T17:39:17.188Z,94.48
2022-10-15T17:41:43.981Z,94.20
2022-10-15T17:44:11.761Z,94.39
2022-10-15T17:46:39.463Z,94.44
2022-10-15T17:49:07.989Z,94.20
2022-10-15T17:51:34.913Z,93.93
2022-10-15T17:54:02.604Z,94.55
2022-10-15T17:56:35.271Z,94.79
2022-10-15T17:59:06.515Z,94.89
2022-10-15T18:04:24.465Z,94.93
2022-10-15T18:06:51.226Z,94.90
2022-10-15T18:09:17.909Z,94.52
2022-10-15T18:11:46.575Z,94.42
2022-10-15T18:14:13.280Z,94.24
2022-10-15T18:16:39.949Z,94.78
2022-10-15T18:19:07.172Z,94.26
2022-10-15T18:21:33.984Z,94.59
2022-10-15T18:24:00.894Z,94.99
2022-10-15T18:26:27.567Z,95.22
2022-10-15T18:28:54.241Z,95.22
2022-10-15T18:31:21.737Z,95.05
2022-10-15T18:33:52.087Z,94.70
2022-10-15T18:36:23.263Z,95.00
2022-10-15T18:38:50.354Z,95.01
2022-10-15T18:41:17.899Z,96.11
2022-10-15T18:43:51.585Z,96.31
2022-10-15T18:46:18.233Z,96.44
2022-10-15T18:48:45.142Z,97.05
2022-10-15T18:51:11.961Z,97.54
2022-10-15T18:53:39.510Z,98.15
2022-10-15T18:56:07.762Z,97.84
2022-10-15T18:58:34.723Z,97.70
2022-10-15T19:01:26.757Z,97.70
2022-10-15T19:03:57.956Z,97.68
2022-10-15T19:06:28.805Z,97.57
2022-10-15T19:08:59.685Z,97.54
2022-10-15T19:11:26.701Z,98.23
2022-10-15T19:13:53.383Z,97.78
2022-10-15T19:16:19.978Z,98.04
2022-10-15T19:18:46.510Z,97.39
2022-10-15T19:21:13.234Z,97.16
2022-10-15T19:23:39.854Z,97.18
2022-10-15T19:26:08.257Z,97.64
2022-10-15T19:28:35.422Z,97.40
2022-10-15T19:31:04.186Z,97.21
2022-10-15T19:33:31.565Z,97.58
2022-10-15T19:35:58.522Z,97.23
2022-10-15T19:38:25.823Z,97.45
2022-10-15T19:40:53.308Z,96.76
2022-10-15T19:43:22.072Z,96.86
2022-10-15T19:45:49.020Z,96.80
2022-10-15T19:48:18.408Z,97.00
2022-10-15T19:50:45.549Z,97.01
2022-10-15T19:53:16.457Z,96.76
2022-10-15T19:55:44.555Z,97.04
2022-10-15T19:58:11.708Z,96.83
2022-10-15T20:00:38.360Z,96.74
2022-10-15T20:03:05.020Z,96.66
2022-10-15T20:05:31.602Z,96.49
2022-10-15T20:07:58.185Z,96.68
2022-10-15T20:10:26.147Z,96.59
2022-10-15T20:12:53.481Z,96.27
2022-10-15T20:15:20.212Z,96.35
2022-10-15T20:17:47.294Z,96.40
2022-10-15T20:20:13.858Z,96.61
2022-10-15T20:22:40.459Z,96.67
2022-10-15T20:25:07.270Z,96.46
2022-10-15T20:27:33.957Z,96.89
2022-10-15T20:30:00.552Z,97.04
2022-10-15T20:32:34.622Z,96.63
2022-10-15T20:35:02.330Z,96.78
2022-10-15T20:37:29.096Z,96.51
2022-10-15T20:42:23.357Z,96.28
2022-10-15T20:44:50.100Z,97.07
2022-10-15T20:47:16.866Z,97.02
2022-10-15T20:49:46.820Z,97.44
2022-10-15T20:52:14.423Z,98.18
2022-10-15T20:54:41.380Z,98.72
2022-10-15T20:57:08.174Z,98.67
2022-10-15T20:59:34.706Z,99.29
2022-10-15T21:02:01.324Z,99.45
2022-10-15T21:04:27.920Z,99.69
2022-10-15T21:06:54.512Z,99.42
2022-10-15T21:09:21.092Z,99.46
2022-10-15T21:11:47.725Z,99.20
2022-10-15T21:14:14.578Z,100.00
2022-10-15T21:16:41.417Z,100.00
2022-10-15T21:19:08.528Z,100.00
2022-10-15T21:21:35.264Z,100.00
2022-10-15T21:24:01.809Z,100.00
2022-10-15T21:26:28.338Z,100.00
2022-10-15T21:28:56.630Z,100.00
2022-10-15T21:31:23.655Z,100.00
2022-10-15T21:33:50.787Z,99.65
2022-10-15T21:36:22.168Z,99.73
2022-10-15T21:38:53.049Z,99.90
2022-10-15T21:41:20.049Z,99.93
2022-10-15T21:43:46.720Z,99.48
2022-10-15T21:46:14.963Z,99.59
2022-10-15T21:48:42.840Z,99.62
2022-10-15T21:51:15.373Z,99.52
2022-10-15T21:53:42.908Z,99.07
2022-10-15T21:56:10.466Z,99.11
2022-10-15T21:58:38.799Z,100.00
2022-10-15T22:01:21.951Z,100.00
2022-10-15T22:03:50.243Z,99.78
2022-10-15T22:06:17.746Z,100.00
2022-10-15T22:08:44.900Z,99.90
2022-10-15T22:11:13.121Z,100.00
2022-10-15T22:13:40.940Z,100.00
2022-10-15T22:16:08.471Z,100.00
2022-10-15T22:18:35.176Z,100.00
2022-10-15T22:21:30.627Z,100.00
2022-10-15T22:24:06.497Z,100.00
2022-10-15T22:26:36.367Z,100.00
2022-10-15T22:29:05.678Z,100.00
2022-10-15T22:31:32.553Z,100.00
2022-10-15T22:34:00.069Z,100.00
2022-10-15T22:36:29.081Z,100.00
2022-10-15T22:39:03.518Z,100.00
2022-10-15T22:41:32.135Z,100.00
2022-10-15T22:43:59.396Z,100.00
2022-10-15T22:46:26.687Z,100.00
2022-10-15T22:48:53.786Z,100.00
2022-10-15T22:51:21.167Z,100.00
2022-10-15T22:53:48.063Z,100.00
2022-10-15T22:56:17.546Z,100.00
2022-10-15T22:58:44.541Z,100.00
2022-10-15T23:01:13.873Z,100.00
2022-10-15T23:03:41.621Z,100.00
2022-10-15T23:06:08.245Z,100.00
2022-10-15T23:08:35.421Z,100.00
2022-10-15T23:11:15.705Z,100.00
2022-10-15T23:13:43.731Z,100.00
2022-10-15T23:16:19.745Z,100.00
2022-10-15T23:18:48.401Z,100.00
2022-10-15T23:21:18.401Z,100.00
2022-10-15T23:23:45.957Z,100.00
2022-10-15T23:26:15.094Z,100.00
2022-10-15T23:28:43.240Z,100.00
2022-10-15T23:31:17.117Z,100.00
2022-10-15T23:33:44.228Z,100.00
2022-10-15T23:36:10.778Z,100.00
2022-10-15T23:38:37.317Z,100.00
2022-10-15T23:41:06.602Z,100.00
2022-10-15T23:43:33.809Z,100.00
2022-10-15T23:46:00.888Z,100.00
2022-10-15T23:48:28.300Z,100.00
2022-10-15T23:50:59.403Z,100.00
2022-10-15T23:53:29.308Z,100.00
2022-10-15T23:55:55.873Z,100.00
2022-10-15T23:58:22.451Z,100.00
